FDX7 HKJK-LIMC
Flight info
| Callsign | FDX7 |
|---|---|
| Flight time | N/A |
| Altitude | 30000 |
| Route | NAKAT4B NAKAT UL433 NN UW325 SIPKI/N0509F310 UT325 POGBA/N0505F320 UT325 FL UT237 BIDAX/N0496F340 UT237 INISA UM998 CSO UA605 CIRTA DCT BUKID DCT NEGAT DCT OMEDA DCT RAPUR/N0494F300 DCT TORTU DCT ANAKI P860 DEVOX |
| Aircraft | B77L/H-SDE1E2E3FGHIJ2J3J4J5M1RWXY/LB1D1 |
Departure
| Time | 2026-05-07 11:10 |
|---|---|
| Airport | Jomo Kenyatta International Airport (HKJK) |
Arrival
| Time | N/A |
|---|---|
| Airport | Milan Malpensa International Airport (LIMC) |
| Time | Latitude | Longitude | Altitude | Speed | Heading |
|---|---|---|---|---|---|
| 2026-05-07 10:46 | -1.33344 | 36.91605 | 5329 ft | 0 kts | 143° |
| 2026-05-07 11:03 | -1.33335 | 36.91598 | 5335 ft | 4 kts | 143° |
| 2026-05-07 11:03 | -1.33313 | 36.91582 | 5335 ft | 4 kts | 143° |
| 2026-05-07 11:03 | -1.33292 | 36.91566 | 5335 ft | 2 kts | 143° |
| 2026-05-07 11:03 | -1.33276 | 36.91550 | 5335 ft | 4 kts | 102° |
| 2026-05-07 11:04 | -1.33282 | 36.91529 | 5335 ft | 4 kts | 50° |
| 2026-05-07 11:04 | -1.33290 | 36.91519 | 5335 ft | 1 kts | 53° |
| 2026-05-07 11:06 | -1.33266 | 36.91551 | 5335 ft | 13 kts | 53° |
| 2026-05-07 11:07 | -1.33187 | 36.91638 | 5330 ft | 17 kts | 35° |
| 2026-05-07 11:07 | -1.33108 | 36.91717 | 5335 ft | 15 kts | 52° |
| 2026-05-07 11:07 | -1.33051 | 36.91794 | 5338 ft | 10 kts | 52° |
| 2026-05-07 11:07 | -1.33019 | 36.91818 | 5341 ft | 2 kts | 20° |
| 2026-05-07 11:08 | -1.32991 | 36.91814 | 5344 ft | 9 kts | 335° |
| 2026-05-07 11:08 | -1.32906 | 36.91754 | 5345 ft | 18 kts | 324° |
| 2026-05-07 11:08 | -1.32802 | 36.91680 | 5345 ft | 17 kts | 324° |
| 2026-05-07 11:08 | -1.32740 | 36.91669 | 5345 ft | 13 kts | 31° |
| 2026-05-07 11:09 | -1.32687 | 36.91737 | 5340 ft | 13 kts | 54° |
| 2026-05-07 11:09 | -1.32600 | 36.91857 | 5337 ft | 35 kts | 54° |
| 2026-05-07 11:09 | -1.32355 | 36.92191 | 5322 ft | 91 kts | 54° |
| 2026-05-07 11:09 | -1.31859 | 36.92867 | 5310 ft | 148 kts | 53° |
| 2026-05-07 11:10 | -1.31161 | 36.93820 | 5345 ft | 187 kts | 53° |
| 2026-05-07 11:10 | -1.30367 | 36.94915 | 5615 ft | 201 kts | 55° |
| 2026-05-07 11:10 | -1.29499 | 36.96066 | 6024 ft | 212 kts | 52° |
| 2026-05-07 11:10 | -1.28566 | 36.97216 | 6721 ft | 213 kts | 52° |
| 2026-05-07 11:11 | -1.27669 | 36.98376 | 7252 ft | 215 kts | 55° |
| 2026-05-07 11:11 | -1.26738 | 36.99655 | 7439 ft | 239 kts | 55° |
| 2026-05-07 11:11 | -1.25708 | 37.01067 | 7653 ft | 263 kts | 55° |
| 2026-05-07 11:11 | -1.24604 | 37.02561 | 8197 ft | 272 kts | 54° |
| 2026-05-07 11:12 | -1.23457 | 37.04104 | 8797 ft | 280 kts | 54° |
| 2026-05-07 11:12 | -1.22292 | 37.05667 | 9586 ft | 281 kts | 54° |
| 2026-05-07 11:12 | -1.21119 | 37.07242 | 10351 ft | 283 kts | 53° |
| 2026-05-07 11:12 | -1.19702 | 37.08629 | 10770 ft | 296 kts | 30° |
| 2026-05-07 11:13 | -1.17642 | 37.09182 | 10960 ft | 323 kts | 359° |
| 2026-05-07 11:13 | -1.15401 | 37.08606 | 11145 ft | 350 kts | 331° |
| 2026-05-07 11:13 | -1.13425 | 37.07057 | 11358 ft | 375 kts | 311° |
| 2026-05-07 11:13 | -1.11937 | 37.04869 | 11931 ft | 385 kts | 298° |
| 2026-05-07 11:14 | -1.11000 | 37.02331 | 12635 ft | 395 kts | 283° |
| 2026-05-07 11:14 | -1.10520 | 36.99613 | 13494 ft | 400 kts | 278° |
| 2026-05-07 11:14 | -1.10190 | 36.96834 | 14337 ft | 405 kts | 276° |
| 2026-05-07 11:14 | -1.09875 | 36.94014 | 15048 ft | 412 kts | 277° |
| 2026-05-07 11:15 | -1.09522 | 36.91152 | 15787 ft | 418 kts | 278° |
| 2026-05-07 11:15 | -1.09123 | 36.88253 | 16473 ft | 424 kts | 279° |
| 2026-05-07 11:15 | -1.08681 | 36.85334 | 17296 ft | 427 kts | 279° |
| 2026-05-07 11:15 | -1.08210 | 36.82387 | 18073 ft | 431 kts | 280° |
| 2026-05-07 11:16 | -1.07718 | 36.79415 | 18783 ft | 436 kts | 280° |
| 2026-05-07 11:16 | -1.07213 | 36.76412 | 19380 ft | 441 kts | 280° |
| 2026-05-07 11:16 | -1.06699 | 36.73382 | 20007 ft | 445 kts | 280° |
| 2026-05-07 11:16 | -1.06180 | 36.70319 | 20629 ft | 449 kts | 280° |
| 2026-05-07 11:17 | -1.05655 | 36.67226 | 21297 ft | 452 kts | 280° |
| 2026-05-07 11:17 | -1.05124 | 36.64134 | 21563 ft | 452 kts | 280° |
| 2026-05-07 11:17 | -1.04588 | 36.61048 | 21709 ft | 453 kts | 280° |
| 2026-05-07 11:17 | -1.04047 | 36.57926 | 21751 ft | 457 kts | 280° |
| 2026-05-07 11:18 | -1.03508 | 36.54789 | 21850 ft | 459 kts | 280° |
| 2026-05-07 11:18 | -1.02972 | 36.51648 | 21993 ft | 460 kts | 280° |
| 2026-05-07 11:18 | -1.02437 | 36.48496 | 22197 ft | 459 kts | 280° |
| 2026-05-07 11:18 | -1.01906 | 36.45353 | 22348 ft | 460 kts | 279° |
| 2026-05-07 11:19 | -1.01375 | 36.42199 | 22474 ft | 461 kts | 280° |
| 2026-05-07 11:19 | -1.00842 | 36.39041 | 22585 ft | 462 kts | 280° |
| 2026-05-07 11:19 | -1.00306 | 36.35861 | 22664 ft | 465 kts | 280° |
| 2026-05-07 11:19 | -0.99768 | 36.32677 | 22808 ft | 465 kts | 280° |
| 2026-05-07 11:20 | -0.99230 | 36.29490 | 22983 ft | 465 kts | 279° |
| 2026-05-07 11:20 | -0.98693 | 36.26310 | 23135 ft | 465 kts | 279° |
| 2026-05-07 11:20 | -0.98155 | 36.23120 | 23206 ft | 467 kts | 279° |
| 2026-05-07 11:20 | -0.97614 | 36.19915 | 23278 ft | 469 kts | 280° |
| 2026-05-07 11:21 | -0.97071 | 36.16695 | 23369 ft | 471 kts | 280° |
| 2026-05-07 11:21 | -0.96528 | 36.13477 | 23546 ft | 470 kts | 280° |
| 2026-05-07 11:21 | -0.95984 | 36.10257 | 23731 ft | 469 kts | 279° |
| 2026-05-07 11:21 | -0.95442 | 36.07042 | 23812 ft | 470 kts | 280° |
| 2026-05-07 11:22 | -0.94897 | 36.03814 | 23864 ft | 472 kts | 280° |
| 2026-05-07 11:22 | -0.94349 | 36.00568 | 23912 ft | 474 kts | 280° |
| 2026-05-07 11:22 | -0.93802 | 35.97326 | 24044 ft | 473 kts | 280° |
| 2026-05-07 11:22 | -0.93262 | 35.94128 | 24167 ft | 473 kts | 280° |
| 2026-05-07 11:23 | -0.92709 | 35.90854 | 24294 ft | 472 kts | 280° |
| 2026-05-07 11:23 | -0.92162 | 35.87610 | 24361 ft | 473 kts | 279° |
| 2026-05-07 11:23 | -0.91621 | 35.84407 | 24424 ft | 475 kts | 279° |
| 2026-05-07 11:23 | -0.91065 | 35.81113 | 24501 ft | 475 kts | 279° |
| 2026-05-07 11:24 | -0.90517 | 35.77861 | 24620 ft | 475 kts | 279° |
| 2026-05-07 11:24 | -0.89975 | 35.74649 | 24700 ft | 475 kts | 279° |
| 2026-05-07 11:24 | -0.89425 | 35.71390 | 24753 ft | 476 kts | 279° |
| 2026-05-07 11:24 | -0.88874 | 35.68124 | 24806 ft | 477 kts | 279° |
| 2026-05-07 11:25 | -0.88323 | 35.64854 | 24872 ft | 478 kts | 279° |
| 2026-05-07 11:25 | -0.87770 | 35.61578 | 24958 ft | 478 kts | 279° |
| 2026-05-07 11:25 | -0.87219 | 35.58307 | 25052 ft | 478 kts | 279° |
| 2026-05-07 11:25 | -0.86661 | 35.54995 | 25115 ft | 478 kts | 279° |
| 2026-05-07 11:26 | -0.86116 | 35.51757 | 25174 ft | 479 kts | 279° |
| 2026-05-07 11:26 | -0.85563 | 35.48469 | 25215 ft | 480 kts | 279° |
| 2026-05-07 11:26 | -0.85014 | 35.45189 | 25306 ft | 480 kts | 279° |
| 2026-05-07 11:26 | -0.84463 | 35.41899 | 25368 ft | 479 kts | 279° |
| 2026-05-07 11:27 | -0.83908 | 35.38615 | 25449 ft | 480 kts | 279° |
| 2026-05-07 11:27 | -0.83314 | 35.35334 | 25505 ft | 480 kts | 283° |
| 2026-05-07 11:27 | -0.82476 | 35.32099 | 25552 ft | 481 kts | 287° |
| 2026-05-07 11:27 | -0.81485 | 35.28917 | 25624 ft | 481 kts | 288° |
| 2026-05-07 11:28 | -0.80447 | 35.25743 | 25697 ft | 481 kts | 288° |
| 2026-05-07 11:28 | -0.79417 | 35.22563 | 25763 ft | 481 kts | 288° |
| 2026-05-07 11:28 | -0.78415 | 35.19374 | 25842 ft | 481 kts | 287° |
| 2026-05-07 11:28 | -0.77438 | 35.16175 | 25893 ft | 481 kts | 287° |
| 2026-05-07 11:29 | -0.76478 | 35.12972 | 25923 ft | 482 kts | 287° |
| 2026-05-07 11:29 | -0.75526 | 35.09761 | 25970 ft | 482 kts | 287° |
| 2026-05-07 11:29 | -0.74576 | 35.06550 | 26027 ft | 483 kts | 287° |
| 2026-05-07 11:29 | -0.73623 | 35.03331 | 26080 ft | 483 kts | 287° |
| 2026-05-07 11:30 | -0.72669 | 35.00113 | 26140 ft | 483 kts | 287° |
| 2026-05-07 11:30 | -0.71715 | 34.96898 | 26186 ft | 483 kts | 287° |
| 2026-05-07 11:30 | -0.70756 | 34.93672 | 26184 ft | 484 kts | 287° |
| 2026-05-07 11:30 | -0.69796 | 34.90442 | 26215 ft | 485 kts | 287° |
| 2026-05-07 11:31 | -0.68835 | 34.87210 | 26269 ft | 485 kts | 287° |
| 2026-05-07 11:31 | -0.67875 | 34.83981 | 26325 ft | 485 kts | 287° |
| 2026-05-07 11:31 | -0.66916 | 34.80752 | 26359 ft | 485 kts | 287° |
| 2026-05-07 11:31 | -0.65954 | 34.77517 | 26413 ft | 485 kts | 287° |
| 2026-05-07 11:32 | -0.64036 | 34.71050 | 26494 ft | 486 kts | 287° |
| 2026-05-07 11:32 | -0.63078 | 34.67817 | 26592 ft | 485 kts | 287° |
| 2026-05-07 11:32 | -0.62123 | 34.64589 | 26622 ft | 485 kts | 287° |
| 2026-05-07 11:33 | -0.61163 | 34.61353 | 26621 ft | 486 kts | 287° |
| 2026-05-07 11:33 | -0.60200 | 34.58119 | 26629 ft | 487 kts | 287° |
| 2026-05-07 11:33 | -0.59261 | 34.54865 | 26653 ft | 487 kts | 286° |
| 2026-05-07 11:33 | -0.58352 | 34.51599 | 26685 ft | 488 kts | 286° |
| 2026-05-07 11:34 | -0.57458 | 34.48331 | 26727 ft | 488 kts | 285° |
| 2026-05-07 11:34 | -0.56568 | 34.45064 | 26778 ft | 488 kts | 285° |
| 2026-05-07 11:34 | -0.55675 | 34.41792 | 26807 ft | 488 kts | 285° |
| 2026-05-07 11:34 | -0.54778 | 34.38516 | 26858 ft | 488 kts | 285° |
| 2026-05-07 11:35 | -0.53881 | 34.35250 | 26891 ft | 489 kts | 285° |
| 2026-05-07 11:35 | -0.52979 | 34.31971 | 26923 ft | 489 kts | 286° |
| 2026-05-07 11:35 | -0.52077 | 34.28697 | 26960 ft | 489 kts | 285° |
| 2026-05-07 11:35 | -0.51176 | 34.25421 | 26988 ft | 489 kts | 286° |
| 2026-05-07 11:36 | -0.50274 | 34.22144 | 27028 ft | 489 kts | 286° |
| 2026-05-07 11:36 | -0.49372 | 34.18866 | 27089 ft | 489 kts | 285° |
| 2026-05-07 11:36 | -0.48471 | 34.15590 | 27154 ft | 488 kts | 285° |
| 2026-05-07 11:36 | -0.47572 | 34.12319 | 27207 ft | 488 kts | 285° |
| 2026-05-07 11:37 | -0.46674 | 34.09046 | 27223 ft | 489 kts | 285° |
| 2026-05-07 11:37 | -0.45776 | 34.05774 | 27239 ft | 489 kts | 285° |
| 2026-05-07 11:37 | -0.44880 | 34.02498 | 27288 ft | 489 kts | 285° |
| 2026-05-07 11:37 | -0.43979 | 33.99218 | 27318 ft | 489 kts | 285° |
| 2026-05-07 11:38 | -0.43073 | 33.95940 | 27354 ft | 489 kts | 285° |
| 2026-05-07 11:38 | -0.42082 | 33.92686 | 27368 ft | 490 kts | 288° |
| 2026-05-07 11:38 | -0.40993 | 33.89470 | 27390 ft | 490 kts | 289° |
| 2026-05-07 11:38 | -0.39870 | 33.86253 | 27424 ft | 489 kts | 289° |
| 2026-05-07 11:39 | -0.38755 | 33.83038 | 27459 ft | 490 kts | 289° |
| 2026-05-07 11:39 | -0.37657 | 33.79818 | 27496 ft | 489 kts | 288° |
| 2026-05-07 11:39 | -0.36591 | 33.76638 | 27515 ft | 490 kts | 288° |
| 2026-05-07 11:39 | -0.35504 | 33.73365 | 27530 ft | 490 kts | 288° |
| 2026-05-07 11:40 | -0.34451 | 33.70178 | 27545 ft | 490 kts | 288° |
| 2026-05-07 11:40 | -0.33367 | 33.66897 | 27548 ft | 491 kts | 288° |
| 2026-05-07 11:40 | -0.32309 | 33.63698 | 27556 ft | 492 kts | 288° |
| 2026-05-07 11:40 | -0.31236 | 33.60454 | 27561 ft | 492 kts | 288° |
| 2026-05-07 11:41 | -0.30159 | 33.57200 | 27566 ft | 493 kts | 288° |
| 2026-05-07 11:41 | -0.29072 | 33.53909 | 27583 ft | 493 kts | 288° |
| 2026-05-07 11:41 | -0.28011 | 33.50699 | 27606 ft | 493 kts | 288° |
| 2026-05-07 11:41 | -0.26916 | 33.47401 | 27627 ft | 493 kts | 288° |
| 2026-05-07 11:42 | -0.25853 | 33.44156 | 27638 ft | 493 kts | 287° |
| 2026-05-07 11:42 | -0.24818 | 33.40889 | 27656 ft | 493 kts | 287° |
| 2026-05-07 11:42 | -0.23812 | 33.37654 | 27672 ft | 493 kts | 287° |
| 2026-05-07 11:42 | -0.22802 | 33.34384 | 27693 ft | 494 kts | 287° |
| 2026-05-07 11:43 | -0.21792 | 33.31105 | 27716 ft | 494 kts | 287° |
| 2026-05-07 11:43 | -0.20780 | 33.27830 | 27722 ft | 494 kts | 287° |
| 2026-05-07 11:43 | -0.19765 | 33.24553 | 27733 ft | 494 kts | 287° |
| 2026-05-07 11:43 | -0.18747 | 33.21275 | 27742 ft | 494 kts | 287° |
| 2026-05-07 11:44 | -0.17726 | 33.17990 | 27757 ft | 494 kts | 287° |
| 2026-05-07 11:44 | -0.16705 | 33.14709 | 27773 ft | 494 kts | 287° |
| 2026-05-07 11:44 | -0.15685 | 33.11429 | 27775 ft | 495 kts | 287° |
| 2026-05-07 11:44 | -0.14666 | 33.08150 | 27779 ft | 495 kts | 287° |
| 2026-05-07 11:45 | -0.13645 | 33.04866 | 27788 ft | 495 kts | 287° |
| 2026-05-07 11:45 | -0.12621 | 33.01574 | 27798 ft | 495 kts | 287° |
| 2026-05-07 11:45 | -0.11601 | 32.98292 | 27814 ft | 495 kts | 287° |
| 2026-05-07 11:45 | -0.10580 | 32.95006 | 27825 ft | 496 kts | 287° |
| 2026-05-07 11:46 | -0.09557 | 32.91715 | 27837 ft | 496 kts | 287° |
| 2026-05-07 11:46 | -0.08534 | 32.88422 | 27847 ft | 496 kts | 287° |
| 2026-05-07 11:46 | -0.07513 | 32.85137 | 27854 ft | 496 kts | 287° |
| 2026-05-07 11:46 | -0.06490 | 32.81842 | 27870 ft | 496 kts | 287° |
| 2026-05-07 11:47 | -0.05467 | 32.78549 | 27876 ft | 496 kts | 287° |
| 2026-05-07 11:47 | -0.04444 | 32.75257 | 27887 ft | 496 kts | 287° |
| 2026-05-07 11:47 | -0.03422 | 32.71964 | 27892 ft | 496 kts | 287° |
| 2026-05-07 11:47 | -0.02401 | 32.68676 | 27900 ft | 497 kts | 287° |
| 2026-05-07 11:48 | -0.01378 | 32.65380 | 27903 ft | 497 kts | 287° |
| 2026-05-07 11:48 | -0.00354 | 32.62078 | 27922 ft | 496 kts | 287° |
| 2026-05-07 11:48 | 0.00665 | 32.58788 | 28064 ft | 496 kts | 287° |
| 2026-05-07 11:49 | 0.02704 | 32.52197 | 28107 ft | 497 kts | 287° |
| 2026-05-07 11:49 | 0.04881 | 32.45654 | 28104 ft | 497 kts | 292° |
| 2026-05-07 11:50 | 0.08105 | 32.39544 | 28111 ft | 498 kts | 303° |
| 2026-05-07 11:50 | 0.12067 | 32.33873 | 28119 ft | 498 kts | 304° |
| 2026-05-07 11:51 | 0.15360 | 32.29151 | 28093 ft | 498 kts | 304° |
| 2026-05-07 11:51 | 0.19278 | 32.23445 | 28060 ft | 498 kts | 303° |
| 2026-05-07 11:52 | 0.23177 | 32.17728 | 28053 ft | 498 kts | 303° |
| 2026-05-07 11:52 | 0.27074 | 32.12014 | 28039 ft | 498 kts | 303° |
| 2026-05-07 11:53 | 0.30973 | 32.06298 | 28043 ft | 498 kts | 303° |
| 2026-05-07 11:53 | 0.34883 | 32.00582 | 28062 ft | 499 kts | 303° |
| 2026-05-07 11:54 | 0.38789 | 31.94849 | 28075 ft | 499 kts | 303° |
| 2026-05-07 11:54 | 0.42691 | 31.89099 | 28079 ft | 500 kts | 303° |
| 2026-05-07 11:55 | 0.46588 | 31.83344 | 28113 ft | 500 kts | 303° |
| 2026-05-07 11:55 | 0.50484 | 31.77595 | 28117 ft | 500 kts | 303° |
| 2026-05-07 11:56 | 0.54390 | 31.71828 | 28123 ft | 501 kts | 303° |
| 2026-05-07 11:56 | 0.58294 | 31.66063 | 28146 ft | 501 kts | 303° |
| 2026-05-07 11:57 | 0.62200 | 31.60286 | 28145 ft | 502 kts | 303° |
| 2026-05-07 11:57 | 0.66107 | 31.54518 | 28161 ft | 501 kts | 303° |
| 2026-05-07 11:58 | 0.70042 | 31.48768 | 28168 ft | 501 kts | 303° |
| 2026-05-07 11:58 | 0.73987 | 31.43018 | 28171 ft | 501 kts | 303° |
| 2026-05-07 11:59 | 0.77918 | 31.37267 | 28198 ft | 501 kts | 303° |
| 2026-05-07 11:59 | 0.81821 | 31.31543 | 28198 ft | 502 kts | 303° |
| 2026-05-07 12:00 | 0.85744 | 31.25788 | 28202 ft | 502 kts | 303° |
| 2026-05-07 12:00 | 0.89677 | 31.20020 | 28211 ft | 502 kts | 303° |
| 2026-05-07 12:01 | 0.93609 | 31.14253 | 28213 ft | 502 kts | 303° |
| 2026-05-07 12:01 | 0.97544 | 31.08483 | 28222 ft | 503 kts | 303° |
| 2026-05-07 12:02 | 1.01483 | 31.02705 | 28223 ft | 504 kts | 303° |
| 2026-05-07 12:02 | 1.05426 | 30.96920 | 28240 ft | 503 kts | 303° |
| 2026-05-07 12:03 | 1.09363 | 30.91143 | 28255 ft | 503 kts | 303° |
| 2026-05-07 12:03 | 1.13295 | 30.85372 | 28260 ft | 502 kts | 303° |
| 2026-05-07 12:04 | 1.17227 | 30.79598 | 28263 ft | 503 kts | 303° |
| 2026-05-07 12:04 | 1.21159 | 30.73819 | 28263 ft | 503 kts | 303° |
| 2026-05-07 12:05 | 1.25095 | 30.68028 | 28270 ft | 503 kts | 303° |
| 2026-05-07 12:05 | 1.29052 | 30.62273 | 28282 ft | 503 kts | 304° |
| 2026-05-07 12:06 | 1.33080 | 30.56561 | 28294 ft | 503 kts | 304° |
| 2026-05-07 12:06 | 1.37105 | 30.50841 | 28305 ft | 502 kts | 304° |
| 2026-05-07 12:07 | 1.41108 | 30.45116 | 28309 ft | 502 kts | 304° |
| 2026-05-07 12:07 | 1.45106 | 30.39390 | 28333 ft | 502 kts | 304° |
| 2026-05-07 12:08 | 1.49100 | 30.33667 | 28346 ft | 502 kts | 304° |
| 2026-05-07 12:08 | 1.53093 | 30.27942 | 28353 ft | 502 kts | 304° |
| 2026-05-07 12:09 | 1.56968 | 30.22150 | 28374 ft | 501 kts | 299° |
| 2026-05-07 12:09 | 1.59968 | 30.15929 | 28385 ft | 500 kts | 294° |
| 2026-05-07 12:10 | 1.62862 | 30.09605 | 28391 ft | 500 kts | 294° |
| 2026-05-07 12:10 | 1.65791 | 30.03290 | 28406 ft | 501 kts | 294° |
| 2026-05-07 12:11 | 1.68733 | 29.96985 | 28424 ft | 501 kts | 294° |
| 2026-05-07 12:11 | 1.71680 | 29.90664 | 28426 ft | 502 kts | 294° |
| 2026-05-07 12:12 | 1.74620 | 29.84339 | 28463 ft | 502 kts | 294° |
| 2026-05-07 12:12 | 1.77573 | 29.78013 | 28475 ft | 502 kts | 294° |
| 2026-05-07 12:13 | 1.80654 | 29.71747 | 28500 ft | 502 kts | 295° |
| 2026-05-07 12:13 | 1.83775 | 29.65494 | 28526 ft | 502 kts | 295° |
| 2026-05-07 12:14 | 1.86858 | 29.59232 | 28541 ft | 502 kts | 295° |
| 2026-05-07 12:14 | 1.89927 | 29.52958 | 28551 ft | 502 kts | 295° |
| 2026-05-07 12:15 | 1.93003 | 29.46691 | 28579 ft | 502 kts | 295° |
| 2026-05-07 12:15 | 1.96012 | 29.40391 | 28585 ft | 503 kts | 294° |
| 2026-05-07 12:16 | 1.98993 | 29.34056 | 28638 ft | 502 kts | 294° |
| 2026-05-07 12:16 | 2.01966 | 29.27739 | 28656 ft | 502 kts | 294° |
| 2026-05-07 12:17 | 2.04944 | 29.21429 | 28670 ft | 502 kts | 295° |
| 2026-05-07 12:17 | 2.07919 | 29.15129 | 28684 ft | 501 kts | 295° |
| 2026-05-07 12:18 | 2.10897 | 29.08822 | 28700 ft | 501 kts | 295° |
| 2026-05-07 12:18 | 2.13870 | 29.02523 | 28704 ft | 501 kts | 295° |
| 2026-05-07 12:19 | 2.16842 | 28.96226 | 28713 ft | 501 kts | 295° |
| 2026-05-07 12:19 | 2.19816 | 28.89924 | 28723 ft | 501 kts | 295° |
| 2026-05-07 12:20 | 2.22785 | 28.83632 | 28748 ft | 500 kts | 294° |
| 2026-05-07 12:20 | 2.25754 | 28.77338 | 28755 ft | 500 kts | 295° |
| 2026-05-07 12:21 | 2.28722 | 28.71044 | 28756 ft | 501 kts | 294° |
| 2026-05-07 12:21 | 2.31672 | 28.64787 | 28770 ft | 501 kts | 295° |
| 2026-05-07 12:22 | 2.34641 | 28.58490 | 28782 ft | 501 kts | 295° |
| 2026-05-07 12:22 | 2.36122 | 28.55348 | 28916 ft | 498 kts | 295° |
| 2026-05-07 12:22 | 2.37593 | 28.52226 | 28932 ft | 497 kts | 295° |
| 2026-05-07 12:23 | 2.40536 | 28.45979 | 28943 ft | 496 kts | 295° |
| 2026-05-07 12:23 | 2.43475 | 28.39737 | 28953 ft | 496 kts | 295° |
| 2026-05-07 12:24 | 2.46409 | 28.33502 | 28970 ft | 495 kts | 295° |
| 2026-05-07 12:24 | 2.49333 | 28.27275 | 28978 ft | 495 kts | 295° |
| 2026-05-07 12:25 | 2.52264 | 28.21057 | 29006 ft | 494 kts | 295° |
| 2026-05-07 12:25 | 2.55235 | 28.14861 | 29019 ft | 494 kts | 295° |
| 2026-05-07 12:26 | 2.58211 | 28.08670 | 29030 ft | 493 kts | 295° |
| 2026-05-07 12:26 | 2.61171 | 28.02480 | 29039 ft | 494 kts | 295° |
| 2026-05-07 12:27 | 2.64131 | 27.96274 | 29046 ft | 494 kts | 295° |
| 2026-05-07 12:27 | 2.67088 | 27.90073 | 29054 ft | 494 kts | 295° |
| 2026-05-07 12:28 | 2.70046 | 27.83867 | 29061 ft | 494 kts | 295° |
| 2026-05-07 12:28 | 2.73008 | 27.77652 | 29065 ft | 495 kts | 295° |
| 2026-05-07 12:29 | 2.75964 | 27.71439 | 29075 ft | 495 kts | 295° |
| 2026-05-07 12:29 | 2.78922 | 27.65220 | 29091 ft | 495 kts | 295° |
| 2026-05-07 12:30 | 2.82110 | 27.59117 | 29089 ft | 495 kts | 302° |
| 2026-05-07 12:30 | 2.86200 | 27.53571 | 29098 ft | 496 kts | 307° |
| 2026-05-07 12:31 | 2.90368 | 27.48134 | 29108 ft | 496 kts | 307° |
| 2026-05-07 12:31 | 2.94524 | 27.42633 | 29106 ft | 496 kts | 306° |
| 2026-05-07 12:32 | 2.98665 | 27.37105 | 29109 ft | 496 kts | 306° |
| 2026-05-07 12:32 | 3.02793 | 27.31581 | 29109 ft | 496 kts | 306° |
| 2026-05-07 12:33 | 3.09024 | 27.23250 | 29117 ft | 496 kts | 306° |
| 2026-05-07 12:33 | 3.13161 | 27.17720 | 29135 ft | 496 kts | 306° |
| 2026-05-07 12:34 | 3.17291 | 27.12199 | 29147 ft | 496 kts | 306° |
| 2026-05-07 12:34 | 3.21425 | 27.06672 | 29149 ft | 495 kts | 306° |
| 2026-05-07 12:35 | 3.25551 | 27.01155 | 29154 ft | 495 kts | 306° |
| 2026-05-07 12:35 | 3.29650 | 26.95672 | 29160 ft | 495 kts | 306° |
| 2026-05-07 12:36 | 3.33777 | 26.90151 | 29159 ft | 495 kts | 306° |
| 2026-05-07 12:36 | 3.37901 | 26.84633 | 29169 ft | 495 kts | 307° |
| 2026-05-07 12:37 | 3.42023 | 26.79117 | 29169 ft | 495 kts | 307° |
| 2026-05-07 12:37 | 3.46146 | 26.73598 | 29170 ft | 495 kts | 307° |
| 2026-05-07 12:38 | 3.50277 | 26.68069 | 29173 ft | 496 kts | 307° |
| 2026-05-07 12:38 | 3.53734 | 26.63441 | 29184 ft | 496 kts | 307° |
| 2026-05-07 12:39 | 3.57865 | 26.57909 | 29184 ft | 496 kts | 307° |
| 2026-05-07 12:39 | 3.61972 | 26.52408 | 29189 ft | 496 kts | 307° |
| 2026-05-07 12:40 | 3.66107 | 26.46869 | 29190 ft | 497 kts | 307° |
| 2026-05-07 12:40 | 3.70246 | 26.41326 | 29195 ft | 497 kts | 307° |
| 2026-05-07 12:41 | 3.74384 | 26.35781 | 29204 ft | 497 kts | 307° |
| 2026-05-07 12:41 | 3.78527 | 26.30230 | 29212 ft | 497 kts | 307° |
| 2026-05-07 12:42 | 3.82662 | 26.24685 | 29228 ft | 497 kts | 307° |
| 2026-05-07 12:42 | 3.86809 | 26.19123 | 29234 ft | 498 kts | 307° |
| 2026-05-07 12:43 | 3.90961 | 26.13558 | 29248 ft | 499 kts | 307° |
| 2026-05-07 12:43 | 3.95118 | 26.07982 | 29253 ft | 500 kts | 307° |
| 2026-05-07 12:44 | 3.99284 | 26.02395 | 29257 ft | 501 kts | 307° |
| 2026-05-07 12:44 | 4.03449 | 25.96805 | 29262 ft | 501 kts | 307° |
| 2026-05-07 12:45 | 4.07620 | 25.91207 | 29268 ft | 502 kts | 307° |
| 2026-05-07 12:45 | 4.11791 | 25.85604 | 29283 ft | 501 kts | 307° |
| 2026-05-07 12:46 | 4.15963 | 25.80008 | 29280 ft | 502 kts | 307° |
| 2026-05-07 12:46 | 4.20138 | 25.74400 | 29287 ft | 502 kts | 307° |
| 2026-05-07 12:47 | 4.24312 | 25.68795 | 29289 ft | 502 kts | 307° |
| 2026-05-07 12:47 | 4.28496 | 25.63172 | 29291 ft | 503 kts | 306° |
| 2026-05-07 12:48 | 4.32672 | 25.57557 | 29303 ft | 503 kts | 306° |
| 2026-05-07 12:48 | 4.36854 | 25.51935 | 29308 ft | 503 kts | 306° |
| 2026-05-07 12:49 | 4.41035 | 25.46313 | 29319 ft | 503 kts | 306° |
| 2026-05-07 12:49 | 4.45189 | 25.40724 | 29323 ft | 503 kts | 306° |
| 2026-05-07 12:50 | 4.49366 | 25.35101 | 29336 ft | 503 kts | 306° |
| 2026-05-07 12:50 | 4.53542 | 25.29476 | 29339 ft | 503 kts | 306° |
| 2026-05-07 12:51 | 4.57710 | 25.23851 | 29340 ft | 502 kts | 306° |
| 2026-05-07 12:51 | 4.61885 | 25.18235 | 29346 ft | 502 kts | 306° |
| 2026-05-07 12:52 | 4.66073 | 25.12626 | 29352 ft | 502 kts | 306° |
| 2026-05-07 12:52 | 4.70252 | 25.07016 | 29346 ft | 502 kts | 306° |
| 2026-05-07 12:53 | 4.74429 | 25.01388 | 29358 ft | 503 kts | 306° |
| 2026-05-07 12:53 | 4.78596 | 24.95772 | 29356 ft | 503 kts | 306° |
| 2026-05-07 12:54 | 4.82768 | 24.90145 | 29363 ft | 502 kts | 306° |
| 2026-05-07 12:54 | 4.86933 | 24.84523 | 29373 ft | 502 kts | 306° |
| 2026-05-07 12:55 | 4.91098 | 24.78893 | 29385 ft | 502 kts | 306° |
| 2026-05-07 12:55 | 4.95272 | 24.73275 | 29384 ft | 502 kts | 306° |
| 2026-05-07 12:56 | 4.99451 | 24.67667 | 29394 ft | 502 kts | 306° |
| 2026-05-07 12:56 | 5.03621 | 24.62050 | 29394 ft | 502 kts | 306° |
| 2026-05-07 12:57 | 5.07784 | 24.56426 | 29399 ft | 502 kts | 306° |
| 2026-05-07 12:57 | 5.11941 | 24.50800 | 29400 ft | 502 kts | 306° |
| 2026-05-07 12:58 | 5.16105 | 24.45180 | 29401 ft | 502 kts | 306° |
| 2026-05-07 12:58 | 5.20252 | 24.39611 | 29407 ft | 502 kts | 306° |
| 2026-05-07 12:59 | 5.24430 | 24.33996 | 29410 ft | 502 kts | 306° |
| 2026-05-07 12:59 | 5.28594 | 24.28378 | 29413 ft | 502 kts | 305° |
| 2026-05-07 13:00 | 5.32759 | 24.22751 | 29412 ft | 502 kts | 305° |
| 2026-05-07 13:00 | 5.36920 | 24.17127 | 29421 ft | 502 kts | 305° |
| 2026-05-07 13:01 | 5.41084 | 24.11500 | 29431 ft | 502 kts | 306° |
| 2026-05-07 13:01 | 5.45249 | 24.05868 | 29434 ft | 502 kts | 306° |
| 2026-05-07 13:02 | 5.49413 | 24.00237 | 29453 ft | 502 kts | 306° |
| 2026-05-07 13:02 | 5.53564 | 23.94621 | 29453 ft | 501 kts | 306° |
| 2026-05-07 13:03 | 5.57715 | 23.88999 | 29478 ft | 501 kts | 306° |
| 2026-05-07 13:03 | 5.61857 | 23.83381 | 29486 ft | 500 kts | 306° |
| 2026-05-07 13:04 | 5.65998 | 23.77769 | 29485 ft | 500 kts | 306° |
| 2026-05-07 13:04 | 5.70184 | 23.72199 | 29504 ft | 499 kts | 307° |
| 2026-05-07 13:05 | 5.74374 | 23.66707 | 29507 ft | 499 kts | 307° |
| 2026-05-07 13:05 | 5.78581 | 23.61170 | 29513 ft | 498 kts | 307° |
| 2026-05-07 13:06 | 5.82772 | 23.55628 | 29519 ft | 498 kts | 307° |
| 2026-05-07 13:06 | 5.86951 | 23.50091 | 29523 ft | 497 kts | 306° |
| 2026-05-07 13:07 | 5.91130 | 23.44556 | 29535 ft | 497 kts | 307° |
| 2026-05-07 13:07 | 5.95308 | 23.39021 | 29555 ft | 496 kts | 307° |
| 2026-05-07 13:08 | 5.99476 | 23.33499 | 29556 ft | 496 kts | 307° |
| 2026-05-07 13:08 | 6.03640 | 23.27979 | 29569 ft | 495 kts | 307° |
| 2026-05-07 13:09 | 6.07804 | 23.22459 | 29576 ft | 495 kts | 307° |
| 2026-05-07 13:09 | 6.11953 | 23.16959 | 29581 ft | 494 kts | 307° |
| 2026-05-07 13:10 | 6.16102 | 23.11454 | 29587 ft | 494 kts | 307° |
| 2026-05-07 13:10 | 6.20236 | 23.05970 | 29739 ft | 490 kts | 307° |
| 2026-05-07 13:11 | 6.24346 | 23.00506 | 29869 ft | 495 kts | 307° |
| 2026-05-07 13:11 | 6.26425 | 22.97723 | 30135 ft | 500 kts | 307° |
| 2026-05-07 13:11 | 6.28515 | 22.94926 | 30561 ft | 499 kts | 307° |
| 2026-05-07 13:12 | 6.30601 | 22.92143 | 31045 ft | 498 kts | 307° |
| 2026-05-07 13:12 | 6.32684 | 22.89370 | 31562 ft | 496 kts | 306° |
| 2026-05-07 13:12 | 6.34758 | 22.86612 | 32054 ft | 495 kts | 306° |
| 2026-05-07 13:12 | 6.36839 | 22.83846 | 32485 ft | 496 kts | 306° |
| 2026-05-07 13:13 | 6.38917 | 22.81085 | 32896 ft | 496 kts | 306° |
| 2026-05-07 13:13 | 6.41004 | 22.78312 | 33339 ft | 497 kts | 306° |
| 2026-05-07 13:13 | 6.43087 | 22.75545 | 33784 ft | 497 kts | 306° |
| 2026-05-07 13:13 | 6.45169 | 22.72776 | 34198 ft | 497 kts | 306° |
| 2026-05-07 13:14 | 6.47248 | 22.70013 | 34643 ft | 495 kts | 306° |
| 2026-05-07 13:14 | 6.49318 | 22.67260 | 35121 ft | 492 kts | 306° |
| 2026-05-07 13:14 | 6.51377 | 22.64521 | 35599 ft | 490 kts | 306° |
| 2026-05-07 13:14 | 6.53432 | 22.61789 | 36033 ft | 489 kts | 306° |
| 2026-05-07 13:15 | 6.55446 | 22.59109 | 36422 ft | 488 kts | 306° |
| 2026-05-07 13:15 | 6.57491 | 22.56389 | 36813 ft | 487 kts | 306° |
| 2026-05-07 13:15 | 6.59527 | 22.53679 | 37218 ft | 486 kts | 306° |
| 2026-05-07 13:15 | 6.61560 | 22.50972 | 37615 ft | 484 kts | 306° |
| 2026-05-07 13:16 | 6.63591 | 22.48268 | 37858 ft | 486 kts | 306° |
| 2026-05-07 13:16 | 6.65640 | 22.45540 | 37804 ft | 489 kts | 306° |
| 2026-05-07 13:16 | 6.69732 | 22.40091 | 37805 ft | 486 kts | 306° |
| 2026-05-07 13:17 | 6.73780 | 22.34698 | 37816 ft | 482 kts | 306° |
| 2026-05-07 13:17 | 6.77784 | 22.29363 | 37813 ft | 480 kts | 306° |
| 2026-05-07 13:18 | 6.81803 | 22.24005 | 37815 ft | 479 kts | 306° |
| 2026-05-07 13:18 | 6.85819 | 22.18649 | 37817 ft | 480 kts | 306° |
| 2026-05-07 13:19 | 6.89847 | 22.13274 | 37813 ft | 481 kts | 306° |
| 2026-05-07 13:19 | 6.93888 | 22.07884 | 37810 ft | 483 kts | 306° |
| 2026-05-07 13:20 | 6.97939 | 22.02484 | 37833 ft | 484 kts | 306° |
| 2026-05-07 13:20 | 7.01994 | 21.97076 | 37813 ft | 485 kts | 306° |
| 2026-05-07 13:21 | 7.06058 | 21.91654 | 37810 ft | 485 kts | 307° |
| 2026-05-07 13:21 | 7.10120 | 21.86232 | 37811 ft | 485 kts | 307° |
| 2026-05-07 13:22 | 7.14181 | 21.80808 | 37808 ft | 484 kts | 307° |
| 2026-05-07 13:22 | 7.18231 | 21.75397 | 37817 ft | 483 kts | 307° |
| 2026-05-07 13:23 | 7.22271 | 21.69997 | 37810 ft | 482 kts | 307° |
| 2026-05-07 13:23 | 7.26302 | 21.64601 | 37811 ft | 481 kts | 307° |
| 2026-05-07 13:24 | 7.30319 | 21.59223 | 37812 ft | 480 kts | 307° |
| 2026-05-07 13:24 | 7.34325 | 21.53856 | 37809 ft | 479 kts | 307° |
| 2026-05-07 13:25 | 7.38325 | 21.48495 | 37809 ft | 478 kts | 307° |
| 2026-05-07 13:25 | 7.41669 | 21.44011 | 37808 ft | 478 kts | 307° |
| 2026-05-07 13:26 | 7.45660 | 21.38660 | 37811 ft | 478 kts | 307° |
| 2026-05-07 13:26 | 7.49656 | 21.33300 | 37811 ft | 478 kts | 307° |
| 2026-05-07 13:27 | 7.53654 | 21.27936 | 37811 ft | 479 kts | 307° |
| 2026-05-07 13:27 | 7.57656 | 21.22563 | 37813 ft | 480 kts | 307° |
| 2026-05-07 13:28 | 7.61668 | 21.17176 | 37811 ft | 481 kts | 307° |
| 2026-05-07 13:28 | 7.65660 | 21.11813 | 37813 ft | 481 kts | 307° |
| 2026-05-07 13:29 | 7.69677 | 21.06415 | 37809 ft | 482 kts | 307° |
| 2026-05-07 13:29 | 7.73698 | 21.01010 | 37807 ft | 482 kts | 307° |
| 2026-05-07 13:30 | 7.77715 | 20.95609 | 37809 ft | 482 kts | 307° |
| 2026-05-07 13:30 | 7.81737 | 20.90198 | 37809 ft | 481 kts | 307° |
| 2026-05-07 13:31 | 7.85742 | 20.84807 | 37795 ft | 479 kts | 307° |
| 2026-05-07 13:31 | 7.89731 | 20.79437 | 37798 ft | 478 kts | 307° |
| 2026-05-07 13:32 | 7.93709 | 20.74079 | 37795 ft | 476 kts | 307° |
| 2026-05-07 13:32 | 7.97668 | 20.68745 | 37790 ft | 475 kts | 307° |
| 2026-05-07 13:33 | 8.01645 | 20.63425 | 37793 ft | 474 kts | 308° |
| 2026-05-07 13:33 | 8.05723 | 20.58193 | 37789 ft | 474 kts | 309° |
| 2026-05-07 13:34 | 8.11861 | 20.50371 | 37787 ft | 475 kts | 309° |
| 2026-05-07 13:35 | 8.15949 | 20.45127 | 37787 ft | 475 kts | 309° |
| 2026-05-07 13:35 | 8.20030 | 20.39881 | 37794 ft | 475 kts | 309° |
| 2026-05-07 13:36 | 8.24113 | 20.34628 | 37788 ft | 475 kts | 309° |
| 2026-05-07 13:36 | 8.28195 | 20.29376 | 37782 ft | 475 kts | 309° |
| 2026-05-07 13:37 | 8.32270 | 20.24132 | 37780 ft | 475 kts | 309° |
| 2026-05-07 13:37 | 8.36347 | 20.18884 | 37780 ft | 474 kts | 309° |
| 2026-05-07 13:38 | 8.40414 | 20.13645 | 37779 ft | 474 kts | 309° |
| 2026-05-07 13:38 | 8.44484 | 20.08402 | 37780 ft | 474 kts | 309° |
| 2026-05-07 13:39 | 8.48552 | 20.03158 | 37777 ft | 474 kts | 309° |
| 2026-05-07 13:39 | 8.52621 | 19.97912 | 37777 ft | 474 kts | 309° |
| 2026-05-07 13:40 | 8.56685 | 19.92670 | 37770 ft | 474 kts | 309° |
| 2026-05-07 13:40 | 8.60754 | 19.87419 | 37766 ft | 474 kts | 309° |
| 2026-05-07 13:41 | 8.64821 | 19.82169 | 37774 ft | 474 kts | 309° |
| 2026-05-07 13:41 | 8.68884 | 19.76920 | 37767 ft | 475 kts | 309° |
| 2026-05-07 13:42 | 8.72960 | 19.71655 | 37766 ft | 475 kts | 309° |
| 2026-05-07 13:42 | 8.77033 | 19.66397 | 37763 ft | 475 kts | 309° |
| 2026-05-07 13:43 | 8.81089 | 19.61163 | 37762 ft | 476 kts | 309° |
| 2026-05-07 13:43 | 8.85168 | 19.55894 | 37763 ft | 476 kts | 309° |
| 2026-05-07 13:44 | 8.89250 | 19.50619 | 37761 ft | 476 kts | 309° |
| 2026-05-07 13:44 | 8.93326 | 19.45349 | 37766 ft | 476 kts | 309° |
| 2026-05-07 13:45 | 8.97407 | 19.40070 | 37761 ft | 476 kts | 308° |
| 2026-05-07 13:45 | 9.01487 | 19.34791 | 37763 ft | 477 kts | 308° |
| 2026-05-07 13:46 | 9.05576 | 19.29497 | 37762 ft | 477 kts | 308° |
| 2026-05-07 13:46 | 9.09655 | 19.24214 | 37760 ft | 477 kts | 308° |
| 2026-05-07 13:47 | 9.13742 | 19.18920 | 37761 ft | 477 kts | 308° |
| 2026-05-07 13:47 | 9.17827 | 19.13624 | 37762 ft | 477 kts | 308° |
| 2026-05-07 13:48 | 9.21908 | 19.08332 | 37759 ft | 477 kts | 308° |
| 2026-05-07 13:48 | 9.25993 | 19.03033 | 37761 ft | 478 kts | 308° |
| 2026-05-07 13:49 | 9.30082 | 18.97727 | 37762 ft | 478 kts | 308° |
| 2026-05-07 13:49 | 9.34170 | 18.92418 | 37760 ft | 478 kts | 309° |
| 2026-05-07 13:50 | 9.38254 | 18.87113 | 37757 ft | 478 kts | 309° |
| 2026-05-07 13:50 | 9.42337 | 18.81807 | 37755 ft | 477 kts | 308° |
| 2026-05-07 13:51 | 9.46394 | 18.76532 | 37747 ft | 478 kts | 308° |
| 2026-05-07 13:51 | 9.50498 | 18.71192 | 37752 ft | 478 kts | 308° |
| 2026-05-07 13:52 | 9.54555 | 18.65905 | 37750 ft | 478 kts | 308° |
| 2026-05-07 13:52 | 9.58637 | 18.60579 | 37751 ft | 479 kts | 308° |
| 2026-05-07 13:53 | 9.62718 | 18.55250 | 37745 ft | 479 kts | 308° |
| 2026-05-07 13:53 | 9.66806 | 18.49912 | 37745 ft | 479 kts | 308° |
| 2026-05-07 13:54 | 9.70890 | 18.44577 | 37749 ft | 479 kts | 308° |
| 2026-05-07 13:54 | 9.74971 | 18.39242 | 37745 ft | 479 kts | 308° |
| 2026-05-07 13:55 | 9.79055 | 18.33901 | 37740 ft | 479 kts | 308° |
| 2026-05-07 13:55 | 9.83131 | 18.28569 | 37742 ft | 478 kts | 308° |
| 2026-05-07 13:56 | 9.87203 | 18.23239 | 37737 ft | 478 kts | 308° |
| 2026-05-07 13:56 | 9.91270 | 18.17914 | 37737 ft | 478 kts | 308° |
| 2026-05-07 13:57 | 9.95338 | 18.12585 | 37743 ft | 477 kts | 308° |
| 2026-05-07 13:57 | 9.99400 | 18.07260 | 37743 ft | 477 kts | 308° |
| 2026-05-07 13:58 | 10.03465 | 18.01931 | 37739 ft | 477 kts | 308° |
| 2026-05-07 13:58 | 10.07528 | 17.96601 | 37747 ft | 477 kts | 308° |
| 2026-05-07 13:59 | 10.11588 | 17.91273 | 37741 ft | 477 kts | 308° |
| 2026-05-07 13:59 | 10.15639 | 17.85954 | 37741 ft | 476 kts | 308° |
| 2026-05-07 14:00 | 10.19691 | 17.80631 | 37741 ft | 476 kts | 308° |
| 2026-05-07 14:00 | 10.23732 | 17.75318 | 37745 ft | 475 kts | 308° |
| 2026-05-07 14:01 | 10.27771 | 17.70008 | 37750 ft | 475 kts | 308° |
| 2026-05-07 14:01 | 10.31802 | 17.64706 | 37745 ft | 474 kts | 308° |
| 2026-05-07 14:02 | 10.35828 | 17.59406 | 37744 ft | 474 kts | 308° |
| 2026-05-07 14:02 | 10.39833 | 17.54133 | 37743 ft | 474 kts | 308° |
| 2026-05-07 14:03 | 10.43856 | 17.48833 | 37743 ft | 474 kts | 308° |
| 2026-05-07 14:03 | 10.47881 | 17.43527 | 37742 ft | 474 kts | 308° |
| 2026-05-07 14:04 | 10.51907 | 17.38219 | 37741 ft | 474 kts | 308° |
| 2026-05-07 14:04 | 10.55931 | 17.32909 | 37739 ft | 474 kts | 308° |
| 2026-05-07 14:05 | 10.59958 | 17.27593 | 37739 ft | 474 kts | 308° |
| 2026-05-07 14:05 | 10.63979 | 17.22283 | 37740 ft | 474 kts | 308° |
| 2026-05-07 14:06 | 10.68003 | 17.16965 | 37742 ft | 474 kts | 308° |
| 2026-05-07 14:06 | 10.72017 | 17.11635 | 37740 ft | 475 kts | 307° |
| 2026-05-07 14:07 | 10.75827 | 17.06151 | 37740 ft | 475 kts | 306° |
| 2026-05-07 14:07 | 10.79574 | 17.00622 | 37743 ft | 475 kts | 306° |
| 2026-05-07 14:08 | 10.83350 | 16.95116 | 37742 ft | 474 kts | 306° |
| 2026-05-07 14:08 | 10.87138 | 16.89628 | 37730 ft | 473 kts | 306° |
| 2026-05-07 14:09 | 10.90916 | 16.84150 | 37733 ft | 472 kts | 306° |
| 2026-05-07 14:09 | 10.94680 | 16.78688 | 37738 ft | 471 kts | 306° |
| 2026-05-07 14:10 | 10.98443 | 16.73229 | 37730 ft | 471 kts | 306° |
| 2026-05-07 14:10 | 11.02202 | 16.67774 | 37742 ft | 470 kts | 306° |
| 2026-05-07 14:11 | 11.05324 | 16.63241 | 37737 ft | 470 kts | 306° |
| 2026-05-07 14:11 | 11.09073 | 16.57792 | 37741 ft | 470 kts | 306° |
| 2026-05-07 14:12 | 11.12823 | 16.52339 | 37738 ft | 470 kts | 306° |
| 2026-05-07 14:12 | 11.16569 | 16.46889 | 37748 ft | 470 kts | 306° |
| 2026-05-07 14:13 | 11.20312 | 16.41440 | 37746 ft | 470 kts | 306° |
| 2026-05-07 14:13 | 11.24060 | 16.35982 | 37755 ft | 470 kts | 306° |
| 2026-05-07 14:14 | 11.27805 | 16.30525 | 37746 ft | 469 kts | 306° |
| 2026-05-07 14:14 | 11.31517 | 16.25113 | 37747 ft | 469 kts | 306° |
| 2026-05-07 14:15 | 11.35252 | 16.19665 | 37748 ft | 468 kts | 306° |
| 2026-05-07 14:15 | 11.38979 | 16.14226 | 37757 ft | 468 kts | 306° |
| 2026-05-07 14:16 | 11.42703 | 16.08787 | 37755 ft | 468 kts | 306° |
| 2026-05-07 14:16 | 11.46424 | 16.03351 | 37754 ft | 468 kts | 306° |
| 2026-05-07 14:17 | 11.50144 | 15.97913 | 37767 ft | 468 kts | 306° |
| 2026-05-07 14:17 | 11.53863 | 15.92474 | 37767 ft | 468 kts | 306° |
| 2026-05-07 14:18 | 11.57584 | 15.87030 | 37761 ft | 468 kts | 306° |
| 2026-05-07 14:18 | 11.61303 | 15.81584 | 37766 ft | 468 kts | 306° |
| 2026-05-07 14:19 | 11.65020 | 15.76140 | 37768 ft | 467 kts | 306° |
| 2026-05-07 14:19 | 11.68727 | 15.70705 | 37761 ft | 467 kts | 306° |
| 2026-05-07 14:20 | 11.72416 | 15.65295 | 37766 ft | 466 kts | 306° |
| 2026-05-07 14:20 | 11.76113 | 15.59870 | 37773 ft | 466 kts | 306° |
| 2026-05-07 14:21 | 11.79808 | 15.54446 | 37774 ft | 465 kts | 306° |
| 2026-05-07 14:21 | 11.83500 | 15.49021 | 37781 ft | 465 kts | 306° |
| 2026-05-07 14:22 | 11.87191 | 15.43597 | 37782 ft | 465 kts | 306° |
| 2026-05-07 14:22 | 11.90858 | 15.38204 | 37778 ft | 465 kts | 306° |
| 2026-05-07 14:23 | 11.94577 | 15.32731 | 37780 ft | 466 kts | 306° |
| 2026-05-07 14:23 | 11.98244 | 15.27333 | 37777 ft | 466 kts | 306° |
| 2026-05-07 14:24 | 12.01933 | 15.21898 | 37780 ft | 466 kts | 306° |
| 2026-05-07 14:24 | 12.05623 | 15.16458 | 37780 ft | 466 kts | 306° |
| 2026-05-07 14:25 | 12.09310 | 15.11020 | 37775 ft | 466 kts | 306° |
| 2026-05-07 14:25 | 12.13203 | 15.05801 | 37781 ft | 458 kts | 316° |
| 2026-05-07 14:26 | 12.18150 | 15.01701 | 37782 ft | 457 kts | 328° |
| 2026-05-07 14:26 | 12.23760 | 14.98657 | 37790 ft | 459 kts | 333° |
| 2026-05-07 14:27 | 12.29492 | 14.95719 | 37790 ft | 462 kts | 333° |
| 2026-05-07 14:27 | 12.35242 | 14.92738 | 37788 ft | 465 kts | 333° |
| 2026-05-07 14:28 | 12.41007 | 14.89715 | 37779 ft | 466 kts | 333° |
| 2026-05-07 14:28 | 12.46768 | 14.86680 | 37773 ft | 466 kts | 333° |
| 2026-05-07 14:29 | 12.52521 | 14.83647 | 37773 ft | 464 kts | 333° |
| 2026-05-07 14:29 | 12.58256 | 14.80623 | 37769 ft | 462 kts | 333° |
| 2026-05-07 14:30 | 12.63963 | 14.77614 | 37774 ft | 461 kts | 333° |
| 2026-05-07 14:30 | 12.69653 | 14.74612 | 37776 ft | 459 kts | 333° |
| 2026-05-07 14:31 | 12.75322 | 14.71619 | 37775 ft | 458 kts | 333° |
| 2026-05-07 14:31 | 12.80977 | 14.68633 | 37770 ft | 457 kts | 333° |
| 2026-05-07 14:32 | 12.86620 | 14.65651 | 37772 ft | 456 kts | 333° |
| 2026-05-07 14:32 | 12.92266 | 14.62666 | 37775 ft | 456 kts | 333° |
| 2026-05-07 14:33 | 12.97909 | 14.59681 | 37777 ft | 457 kts | 333° |
| 2026-05-07 14:33 | 13.03556 | 14.56693 | 37770 ft | 457 kts | 333° |
| 2026-05-07 14:34 | 13.09217 | 14.53695 | 37791 ft | 457 kts | 333° |
| 2026-05-07 14:34 | 13.14877 | 14.50697 | 37773 ft | 457 kts | 333° |
| 2026-05-07 14:35 | 13.20526 | 14.47703 | 37775 ft | 457 kts | 333° |
| 2026-05-07 14:35 | 13.26165 | 14.44712 | 37772 ft | 456 kts | 333° |
| 2026-05-07 14:36 | 13.31803 | 14.41720 | 37767 ft | 456 kts | 333° |
| 2026-05-07 14:36 | 13.37395 | 14.38751 | 37770 ft | 455 kts | 333° |
| 2026-05-07 14:37 | 13.43023 | 14.35762 | 37769 ft | 455 kts | 333° |
| 2026-05-07 14:37 | 13.51484 | 14.31265 | 37763 ft | 454 kts | 332° |
| 2026-05-07 14:38 | 13.57049 | 14.28305 | 37770 ft | 453 kts | 332° |
| 2026-05-07 14:38 | 13.62635 | 14.25332 | 37767 ft | 452 kts | 332° |
| 2026-05-07 14:39 | 13.68221 | 14.22358 | 37764 ft | 451 kts | 332° |
| 2026-05-07 14:39 | 13.73791 | 14.19389 | 37757 ft | 451 kts | 332° |
| 2026-05-07 14:40 | 13.79360 | 14.16420 | 37755 ft | 451 kts | 332° |
| 2026-05-07 14:40 | 13.84926 | 14.13451 | 37769 ft | 450 kts | 332° |
| 2026-05-07 14:41 | 13.90483 | 14.10485 | 37760 ft | 450 kts | 332° |
| 2026-05-07 14:41 | 13.96037 | 14.07524 | 37760 ft | 449 kts | 332° |
| 2026-05-07 14:42 | 14.01583 | 14.04566 | 37756 ft | 449 kts | 332° |
| 2026-05-07 14:42 | 14.07128 | 14.01606 | 37755 ft | 449 kts | 332° |
| 2026-05-07 14:43 | 14.12675 | 13.98642 | 37759 ft | 449 kts | 332° |
| 2026-05-07 14:43 | 14.18218 | 13.95678 | 37757 ft | 449 kts | 332° |
| 2026-05-07 14:44 | 14.23766 | 13.92711 | 37755 ft | 449 kts | 332° |
| 2026-05-07 14:44 | 14.29312 | 13.89741 | 37758 ft | 449 kts | 332° |
| 2026-05-07 14:45 | 14.34864 | 13.86769 | 37758 ft | 449 kts | 332° |
| 2026-05-07 14:45 | 14.40411 | 13.83797 | 37761 ft | 449 kts | 332° |
| 2026-05-07 14:46 | 14.45964 | 13.80820 | 37750 ft | 450 kts | 332° |
| 2026-05-07 14:46 | 14.51476 | 13.77862 | 37752 ft | 449 kts | 332° |
| 2026-05-07 14:47 | 14.57022 | 13.74884 | 37758 ft | 449 kts | 332° |
| 2026-05-07 14:47 | 14.62560 | 13.71907 | 37755 ft | 449 kts | 332° |
| 2026-05-07 14:48 | 14.68095 | 13.68931 | 37755 ft | 448 kts | 332° |
| 2026-05-07 14:48 | 14.73621 | 13.65958 | 37746 ft | 448 kts | 332° |
| 2026-05-07 14:49 | 14.79141 | 13.62986 | 37755 ft | 447 kts | 332° |
| 2026-05-07 14:49 | 14.84660 | 13.60014 | 37757 ft | 447 kts | 332° |
| 2026-05-07 14:50 | 14.90176 | 13.57041 | 37764 ft | 447 kts | 331° |
| 2026-05-07 14:50 | 14.95693 | 13.54066 | 37758 ft | 447 kts | 331° |
| 2026-05-07 14:51 | 15.01198 | 13.51096 | 37760 ft | 446 kts | 331° |
| 2026-05-07 14:51 | 15.06698 | 13.48126 | 37753 ft | 446 kts | 331° |
| 2026-05-07 14:52 | 15.12193 | 13.45157 | 37763 ft | 446 kts | 331° |
| 2026-05-07 14:52 | 15.17692 | 13.42185 | 37761 ft | 446 kts | 331° |
| 2026-05-07 14:53 | 15.23195 | 13.39208 | 37762 ft | 446 kts | 331° |
| 2026-05-07 14:53 | 15.28699 | 13.36230 | 37766 ft | 447 kts | 331° |
| 2026-05-07 14:54 | 15.34145 | 13.33281 | 37767 ft | 446 kts | 331° |
| 2026-05-07 14:54 | 15.39642 | 13.30302 | 37761 ft | 446 kts | 331° |
| 2026-05-07 14:55 | 15.45106 | 13.27340 | 37758 ft | 445 kts | 331° |
| 2026-05-07 14:55 | 15.50569 | 13.24378 | 37736 ft | 439 kts | 331° |
| 2026-05-07 14:56 | 15.55874 | 13.21499 | 37765 ft | 430 kts | 331° |
| 2026-05-07 14:56 | 15.61180 | 13.18617 | 37779 ft | 425 kts | 331° |
| 2026-05-07 14:57 | 15.66382 | 13.15789 | 37763 ft | 420 kts | 331° |
| 2026-05-07 14:57 | 15.71502 | 13.13005 | 37775 ft | 416 kts | 331° |
| 2026-05-07 14:58 | 15.76606 | 13.10227 | 37777 ft | 413 kts | 330° |
| 2026-05-07 14:58 | 15.81672 | 13.07468 | 37772 ft | 409 kts | 330° |
| 2026-05-07 14:59 | 15.86700 | 13.04729 | 37768 ft | 406 kts | 330° |
| 2026-05-07 14:59 | 15.90879 | 13.02450 | 37752 ft | 404 kts | 330° |
| 2026-05-07 15:00 | 15.95842 | 12.99744 | 37781 ft | 403 kts | 330° |
| 2026-05-07 15:00 | 16.00513 | 12.96531 | 37781 ft | 401 kts | 321° |
| 2026-05-07 15:01 | 16.04631 | 12.92602 | 37777 ft | 401 kts | 316° |
| 2026-05-07 15:01 | 16.08611 | 12.88556 | 37777 ft | 399 kts | 315° |
| 2026-05-07 15:02 | 16.12566 | 12.84539 | 37763 ft | 396 kts | 315° |
| 2026-05-07 15:02 | 16.16502 | 12.80554 | 37763 ft | 394 kts | 316° |
| 2026-05-07 15:03 | 16.20401 | 12.76610 | 37759 ft | 392 kts | 315° |
| 2026-05-07 15:03 | 16.24326 | 12.72639 | 37763 ft | 390 kts | 315° |
| 2026-05-07 15:04 | 16.28210 | 12.68710 | 37763 ft | 389 kts | 315° |
| 2026-05-07 15:04 | 16.32053 | 12.64818 | 37786 ft | 387 kts | 315° |
| 2026-05-07 15:05 | 16.35900 | 12.60922 | 37769 ft | 385 kts | 315° |
| 2026-05-07 15:05 | 16.39732 | 12.57037 | 37765 ft | 384 kts | 315° |
| 2026-05-07 15:06 | 16.43551 | 12.53163 | 37764 ft | 382 kts | 315° |
| 2026-05-07 15:06 | 16.47354 | 12.49303 | 37775 ft | 381 kts | 315° |
| 2026-05-07 15:07 | 16.51140 | 12.45458 | 37789 ft | 379 kts | 315° |
| 2026-05-07 15:07 | 16.54910 | 12.41627 | 37776 ft | 378 kts | 315° |
| 2026-05-07 15:08 | 16.58669 | 12.37805 | 37765 ft | 377 kts | 315° |
| 2026-05-07 15:08 | 16.62414 | 12.33995 | 37762 ft | 376 kts | 315° |
| 2026-05-07 15:09 | 16.66146 | 12.30197 | 37762 ft | 375 kts | 315° |
| 2026-05-07 15:09 | 16.69869 | 12.26405 | 37767 ft | 373 kts | 315° |
| 2026-05-07 15:10 | 16.73579 | 12.22625 | 37767 ft | 372 kts | 315° |
| 2026-05-07 15:10 | 16.77269 | 12.18862 | 37767 ft | 371 kts | 315° |
| 2026-05-07 15:11 | 16.80949 | 12.15106 | 37768 ft | 369 kts | 315° |
| 2026-05-07 15:11 | 16.84621 | 12.11357 | 37766 ft | 368 kts | 315° |
| 2026-05-07 15:12 | 16.88273 | 12.07626 | 37764 ft | 367 kts | 315° |
| 2026-05-07 15:12 | 16.91893 | 12.03927 | 37767 ft | 366 kts | 314° |
| 2026-05-07 15:13 | 16.95524 | 12.00215 | 37764 ft | 365 kts | 314° |
| 2026-05-07 15:13 | 16.99136 | 11.96519 | 37765 ft | 363 kts | 314° |
| 2026-05-07 15:14 | 17.02739 | 11.92830 | 37766 ft | 362 kts | 314° |
| 2026-05-07 15:14 | 17.06329 | 11.89151 | 37771 ft | 361 kts | 314° |
| 2026-05-07 15:15 | 17.09906 | 11.85484 | 37761 ft | 359 kts | 314° |
| 2026-05-07 15:15 | 17.13466 | 11.81831 | 37765 ft | 358 kts | 314° |
| 2026-05-07 15:16 | 17.17016 | 11.78187 | 37766 ft | 357 kts | 314° |
| 2026-05-07 15:16 | 17.20552 | 11.74556 | 37763 ft | 355 kts | 314° |
| 2026-05-07 15:17 | 17.24071 | 11.70940 | 37764 ft | 354 kts | 314° |
| 2026-05-07 15:17 | 17.25831 | 11.69132 | 37621 ft | 358 kts | 314° |
| 2026-05-07 15:17 | 17.27643 | 11.67274 | 36997 ft | 371 kts | 314° |
| 2026-05-07 15:18 | 17.29492 | 11.65366 | 36883 ft | 374 kts | 314° |
| 2026-05-07 15:18 | 17.31356 | 11.63449 | 36846 ft | 377 kts | 314° |
| 2026-05-07 15:18 | 17.35116 | 11.59580 | 36732 ft | 381 kts | 314° |
| 2026-05-07 15:19 | 17.38904 | 11.55672 | 36682 ft | 383 kts | 314° |
| 2026-05-07 15:19 | 17.42770 | 11.51830 | 36669 ft | 385 kts | 319° |
| 2026-05-07 15:20 | 17.47238 | 11.48697 | 36678 ft | 388 kts | 328° |
| 2026-05-07 15:20 | 17.52140 | 11.46247 | 36672 ft | 393 kts | 332° |
| 2026-05-07 15:21 | 17.57142 | 11.43910 | 36674 ft | 394 kts | 332° |
| 2026-05-07 15:21 | 17.62147 | 11.41557 | 36673 ft | 394 kts | 332° |
| 2026-05-07 15:22 | 17.67155 | 11.39183 | 36503 ft | 398 kts | 332° |
| 2026-05-07 15:22 | 17.69697 | 11.37976 | 36003 ft | 405 kts | 332° |
| 2026-05-07 15:22 | 17.72281 | 11.36737 | 35879 ft | 411 kts | 332° |
| 2026-05-07 15:23 | 17.77527 | 11.34237 | 35786 ft | 415 kts | 332° |
| 2026-05-07 15:23 | 17.82790 | 11.31728 | 35773 ft | 416 kts | 332° |
| 2026-05-07 15:24 | 17.88061 | 11.29210 | 35756 ft | 416 kts | 332° |
| 2026-05-07 15:24 | 17.93332 | 11.26690 | 35775 ft | 417 kts | 332° |
| 2026-05-07 15:25 | 17.98617 | 11.24162 | 35773 ft | 417 kts | 332° |
| 2026-05-07 15:25 | 18.03900 | 11.21634 | 35772 ft | 418 kts | 332° |
| 2026-05-07 15:26 | 18.09192 | 11.19099 | 35774 ft | 418 kts | 332° |
| 2026-05-07 15:26 | 18.14473 | 11.16570 | 35781 ft | 418 kts | 332° |
| 2026-05-07 15:27 | 18.19723 | 11.14052 | 35776 ft | 418 kts | 332° |
| 2026-05-07 15:27 | 18.25020 | 11.11510 | 35777 ft | 419 kts | 332° |
| 2026-05-07 15:28 | 18.30317 | 11.08966 | 35777 ft | 419 kts | 332° |
| 2026-05-07 15:28 | 18.35615 | 11.06420 | 35777 ft | 419 kts | 332° |
| 2026-05-07 15:29 | 18.40916 | 11.03869 | 35777 ft | 419 kts | 332° |
| 2026-05-07 15:29 | 18.46213 | 11.01320 | 35766 ft | 419 kts | 332° |
| 2026-05-07 15:30 | 18.51518 | 10.98767 | 35767 ft | 419 kts | 331° |
| 2026-05-07 15:30 | 18.56813 | 10.96216 | 35762 ft | 419 kts | 331° |
| 2026-05-07 15:31 | 18.62110 | 10.93659 | 35761 ft | 419 kts | 331° |
| 2026-05-07 15:31 | 18.67408 | 10.91099 | 35778 ft | 419 kts | 331° |
| 2026-05-07 15:32 | 18.72709 | 10.88536 | 35773 ft | 419 kts | 331° |
| 2026-05-07 15:32 | 18.78008 | 10.85972 | 35757 ft | 419 kts | 331° |
| 2026-05-07 15:33 | 18.83305 | 10.83408 | 35766 ft | 419 kts | 331° |
| 2026-05-07 15:33 | 18.88599 | 10.80843 | 35768 ft | 419 kts | 331° |
| 2026-05-07 15:34 | 18.93895 | 10.78275 | 35763 ft | 419 kts | 331° |
| 2026-05-07 15:34 | 18.99155 | 10.75722 | 35764 ft | 419 kts | 331° |
| 2026-05-07 15:35 | 19.04449 | 10.73152 | 35763 ft | 419 kts | 331° |
| 2026-05-07 15:35 | 19.09739 | 10.70581 | 35761 ft | 419 kts | 331° |
| 2026-05-07 15:36 | 19.15031 | 10.68008 | 35772 ft | 419 kts | 331° |
| 2026-05-07 15:36 | 19.20324 | 10.65433 | 35770 ft | 419 kts | 331° |
| 2026-05-07 15:37 | 19.25618 | 10.62855 | 35759 ft | 419 kts | 331° |
| 2026-05-07 15:37 | 19.30913 | 10.60275 | 35761 ft | 419 kts | 331° |
| 2026-05-07 15:38 | 19.36221 | 10.57685 | 35786 ft | 425 kts | 331° |
| 2026-05-07 15:38 | 19.41695 | 10.55007 | 35763 ft | 437 kts | 331° |
| 2026-05-07 15:39 | 19.47221 | 10.52312 | 35758 ft | 437 kts | 331° |
| 2026-05-07 15:39 | 19.52735 | 10.49621 | 35765 ft | 437 kts | 331° |
| 2026-05-07 15:40 | 19.58255 | 10.46922 | 35757 ft | 436 kts | 331° |
| 2026-05-07 15:40 | 19.63760 | 10.44227 | 35759 ft | 436 kts | 331° |
| 2026-05-07 15:41 | 19.69266 | 10.41530 | 35761 ft | 436 kts | 331° |
| 2026-05-07 15:41 | 19.74735 | 10.38849 | 35762 ft | 436 kts | 331° |
| 2026-05-07 15:42 | 19.80272 | 10.36132 | 35760 ft | 436 kts | 331° |
| 2026-05-07 15:42 | 19.85773 | 10.33432 | 35763 ft | 436 kts | 330° |
| 2026-05-07 15:43 | 19.91277 | 10.30727 | 35758 ft | 436 kts | 330° |
| 2026-05-07 15:43 | 19.96777 | 10.28023 | 35758 ft | 436 kts | 330° |
| 2026-05-07 15:44 | 20.02272 | 10.25319 | 35764 ft | 436 kts | 330° |
| 2026-05-07 15:44 | 20.07741 | 10.22626 | 35765 ft | 436 kts | 330° |
| 2026-05-07 15:45 | 20.13243 | 10.19914 | 35765 ft | 436 kts | 330° |
| 2026-05-07 15:45 | 20.18746 | 10.17200 | 35770 ft | 436 kts | 330° |
| 2026-05-07 15:46 | 20.26111 | 10.13564 | 35762 ft | 436 kts | 330° |
| 2026-05-07 15:47 | 20.32512 | 10.10401 | 35767 ft | 436 kts | 330° |
| 2026-05-07 15:47 | 20.37123 | 10.08121 | 35763 ft | 436 kts | 330° |
| 2026-05-07 15:48 | 20.42592 | 10.05414 | 35764 ft | 436 kts | 330° |
| 2026-05-07 15:48 | 20.48105 | 10.02683 | 35764 ft | 436 kts | 330° |
| 2026-05-07 15:49 | 20.53607 | 9.99956 | 35772 ft | 436 kts | 330° |
| 2026-05-07 15:49 | 20.59111 | 9.97226 | 35772 ft | 436 kts | 330° |
| 2026-05-07 15:50 | 20.64615 | 9.94493 | 35769 ft | 436 kts | 330° |
| 2026-05-07 15:50 | 20.70113 | 9.91761 | 35771 ft | 436 kts | 330° |
| 2026-05-07 15:51 | 20.75616 | 9.89039 | 35767 ft | 436 kts | 330° |
| 2026-05-07 15:51 | 20.81124 | 9.86312 | 35764 ft | 436 kts | 330° |
| 2026-05-07 15:52 | 20.86626 | 9.83578 | 35779 ft | 436 kts | 330° |
| 2026-05-07 15:52 | 20.92124 | 9.80817 | 35768 ft | 437 kts | 329° |
| 2026-05-07 15:53 | 20.97624 | 9.78053 | 35758 ft | 437 kts | 329° |
| 2026-05-07 15:53 | 21.03143 | 9.75296 | 35763 ft | 438 kts | 329° |
| 2026-05-07 15:54 | 21.08664 | 9.72540 | 35765 ft | 438 kts | 329° |
| 2026-05-07 15:54 | 21.14190 | 9.69779 | 35765 ft | 438 kts | 329° |
| 2026-05-07 15:55 | 21.19706 | 9.67018 | 35759 ft | 438 kts | 329° |
| 2026-05-07 15:55 | 21.25229 | 9.64252 | 35763 ft | 438 kts | 329° |
| 2026-05-07 15:56 | 21.30748 | 9.61484 | 35764 ft | 438 kts | 329° |
| 2026-05-07 15:56 | 21.36263 | 9.58718 | 35758 ft | 438 kts | 329° |
| 2026-05-07 15:57 | 21.41776 | 9.55950 | 35761 ft | 437 kts | 329° |
| 2026-05-07 15:57 | 21.47288 | 9.53178 | 35758 ft | 437 kts | 329° |
| 2026-05-07 15:58 | 21.52797 | 9.50406 | 35772 ft | 437 kts | 329° |
| 2026-05-07 15:58 | 21.58275 | 9.47647 | 35765 ft | 438 kts | 329° |
| 2026-05-07 15:59 | 21.63750 | 9.44888 | 35755 ft | 438 kts | 329° |
| 2026-05-07 15:59 | 21.69267 | 9.42105 | 35760 ft | 438 kts | 329° |
| 2026-05-07 16:00 | 21.74794 | 9.39315 | 35761 ft | 439 kts | 329° |
| 2026-05-07 16:00 | 21.80317 | 9.36524 | 35751 ft | 439 kts | 329° |
| 2026-05-07 16:01 | 21.85843 | 9.33729 | 35760 ft | 439 kts | 329° |
| 2026-05-07 16:01 | 21.91368 | 9.30932 | 35751 ft | 439 kts | 329° |
| 2026-05-07 16:02 | 21.97031 | 9.28465 | 35764 ft | 441 kts | 334° |
| 2026-05-07 16:02 | 22.02843 | 9.26289 | 35751 ft | 444 kts | 334° |
| 2026-05-07 16:03 | 22.08693 | 9.24097 | 35756 ft | 446 kts | 334° |
| 2026-05-07 16:03 | 22.14563 | 9.21879 | 35745 ft | 448 kts | 334° |
| 2026-05-07 16:04 | 22.20436 | 9.19649 | 35758 ft | 448 kts | 334° |
| 2026-05-07 16:04 | 22.26327 | 9.17408 | 35745 ft | 448 kts | 334° |
| 2026-05-07 16:05 | 22.32201 | 9.15172 | 35747 ft | 447 kts | 334° |
| 2026-05-07 16:05 | 22.38072 | 9.12935 | 35746 ft | 447 kts | 334° |
| 2026-05-07 16:06 | 22.43924 | 9.10702 | 35763 ft | 446 kts | 334° |
| 2026-05-07 16:06 | 22.49770 | 9.08470 | 35754 ft | 445 kts | 333° |
| 2026-05-07 16:07 | 22.55617 | 9.06236 | 35767 ft | 446 kts | 333° |
| 2026-05-07 16:07 | 22.61466 | 9.03998 | 35759 ft | 446 kts | 333° |
| 2026-05-07 16:08 | 22.67321 | 9.01756 | 35757 ft | 446 kts | 333° |
| 2026-05-07 16:08 | 22.73143 | 8.99525 | 35756 ft | 447 kts | 333° |
| 2026-05-07 16:09 | 22.78999 | 8.97280 | 35757 ft | 447 kts | 333° |
| 2026-05-07 16:09 | 22.84868 | 8.95026 | 35759 ft | 447 kts | 333° |
| 2026-05-07 16:10 | 22.90728 | 8.92776 | 35764 ft | 447 kts | 333° |
| 2026-05-07 16:10 | 22.96573 | 8.90529 | 35756 ft | 445 kts | 333° |
| 2026-05-07 16:11 | 23.02394 | 8.88289 | 35766 ft | 443 kts | 333° |
| 2026-05-07 16:11 | 23.08209 | 8.86048 | 35763 ft | 442 kts | 333° |
| 2026-05-07 16:12 | 23.14007 | 8.83811 | 35768 ft | 442 kts | 333° |
| 2026-05-07 16:12 | 23.19800 | 8.81575 | 35779 ft | 442 kts | 332° |
| 2026-05-07 16:13 | 23.25598 | 8.79334 | 35768 ft | 442 kts | 332° |
| 2026-05-07 16:13 | 23.31394 | 8.77093 | 35770 ft | 443 kts | 332° |
| 2026-05-07 16:14 | 23.37202 | 8.74844 | 35774 ft | 443 kts | 332° |
| 2026-05-07 16:14 | 23.43010 | 8.72594 | 35769 ft | 443 kts | 332° |
| 2026-05-07 16:15 | 23.48829 | 8.70337 | 35773 ft | 444 kts | 332° |
| 2026-05-07 16:15 | 23.54665 | 8.68072 | 35771 ft | 446 kts | 332° |
| 2026-05-07 16:16 | 23.60470 | 8.65816 | 35764 ft | 446 kts | 332° |
| 2026-05-07 16:16 | 23.66352 | 8.63529 | 35767 ft | 446 kts | 332° |
| 2026-05-07 16:17 | 23.72151 | 8.61272 | 35766 ft | 446 kts | 332° |
| 2026-05-07 16:17 | 23.77996 | 8.58995 | 35766 ft | 446 kts | 332° |
| 2026-05-07 16:18 | 23.83829 | 8.56721 | 35775 ft | 445 kts | 332° |
| 2026-05-07 16:18 | 23.89669 | 8.54441 | 35761 ft | 446 kts | 332° |
| 2026-05-07 16:19 | 23.95510 | 8.52158 | 35764 ft | 446 kts | 332° |
| 2026-05-07 16:19 | 24.01347 | 8.49875 | 35760 ft | 445 kts | 332° |
| 2026-05-07 16:20 | 24.07182 | 8.47591 | 35760 ft | 445 kts | 332° |
| 2026-05-07 16:20 | 24.13017 | 8.45304 | 35757 ft | 446 kts | 332° |
| 2026-05-07 16:21 | 24.18854 | 8.43014 | 35763 ft | 446 kts | 332° |
| 2026-05-07 16:21 | 24.24686 | 8.40724 | 35753 ft | 445 kts | 332° |
| 2026-05-07 16:22 | 24.30511 | 8.38436 | 35756 ft | 444 kts | 332° |
| 2026-05-07 16:22 | 24.36326 | 8.36148 | 35754 ft | 444 kts | 332° |
| 2026-05-07 16:23 | 24.42137 | 8.33860 | 35755 ft | 444 kts | 331° |
| 2026-05-07 16:23 | 24.47925 | 8.31576 | 35764 ft | 446 kts | 331° |
| 2026-05-07 16:24 | 24.53778 | 8.29265 | 35770 ft | 448 kts | 331° |
| 2026-05-07 16:24 | 24.59647 | 8.26947 | 35770 ft | 449 kts | 332° |
| 2026-05-07 16:25 | 24.65536 | 8.24620 | 35769 ft | 450 kts | 332° |
| 2026-05-07 16:25 | 24.71430 | 8.22288 | 35766 ft | 450 kts | 332° |
| 2026-05-07 16:26 | 24.77324 | 8.19954 | 35765 ft | 450 kts | 332° |
| 2026-05-07 16:26 | 24.83210 | 8.17621 | 35797 ft | 449 kts | 331° |
| 2026-05-07 16:27 | 24.89077 | 8.15292 | 35798 ft | 448 kts | 331° |
| 2026-05-07 16:27 | 24.94934 | 8.12966 | 35808 ft | 447 kts | 331° |
| 2026-05-07 16:28 | 25.00769 | 8.10644 | 35814 ft | 446 kts | 331° |
| 2026-05-07 16:28 | 25.06610 | 8.08318 | 35825 ft | 446 kts | 331° |
| 2026-05-07 16:29 | 25.12443 | 8.05993 | 35832 ft | 446 kts | 330° |
| 2026-05-07 16:29 | 25.18292 | 8.03651 | 35840 ft | 448 kts | 331° |
| 2026-05-07 16:30 | 25.24159 | 8.01310 | 35841 ft | 449 kts | 331° |
| 2026-05-07 16:30 | 25.30050 | 7.98959 | 35846 ft | 450 kts | 331° |
| 2026-05-07 16:31 | 25.35946 | 7.96600 | 35858 ft | 451 kts | 330° |
| 2026-05-07 16:31 | 25.41849 | 7.94235 | 35849 ft | 452 kts | 330° |
| 2026-05-07 16:32 | 25.47775 | 7.91857 | 35842 ft | 453 kts | 330° |
| 2026-05-07 16:32 | 25.53698 | 7.89478 | 35845 ft | 453 kts | 331° |
| 2026-05-07 16:33 | 25.59622 | 7.87102 | 35861 ft | 453 kts | 331° |
| 2026-05-07 16:33 | 25.65547 | 7.84719 | 35876 ft | 453 kts | 330° |
| 2026-05-07 16:34 | 25.70474 | 7.82731 | 35855 ft | 453 kts | 330° |
| 2026-05-07 16:34 | 25.76396 | 7.80344 | 35871 ft | 453 kts | 331° |
| 2026-05-07 16:35 | 25.82323 | 7.77952 | 35856 ft | 453 kts | 331° |
| 2026-05-07 16:35 | 25.88246 | 7.75558 | 35859 ft | 453 kts | 331° |
| 2026-05-07 16:36 | 25.94176 | 7.73160 | 35856 ft | 453 kts | 331° |
| 2026-05-07 16:36 | 26.00095 | 7.70766 | 35852 ft | 453 kts | 331° |
| 2026-05-07 16:37 | 26.01100 | 7.70360 | 35849 ft | 453 kts | 331° |